Time;durP1;ratioP1;P1;durP2;ratioP2;P2;SDS_P1;SDS_P2;PMS_P1;PMS_P2;Temp;Humidity;BMP_temperature;BMP_pressure;BME280_temperature;BME280_humidity;BME280_pressure;Samples;Min_cycle;Max_cycle;Signal;HPM_P1;HPM_P2
2023/06/12 11:15:11;;;;;;;3.30;3.10;;;;;;;27.33;28.67;101557.31;4897077;28;20127;-84
2023/06/12 11:17:36;;;;;;;4.07;3.10;;;;;;;27.39;29.82;101553.16;4940117;29;20050;-84
2023/06/12 11:20:05;;;;;;;4.15;3.20;;;;;;;27.37;30.87;101553.31;4944195;29;20066;-84
2023/06/12 11:22:30;;;;;;;;;;;;;;;27.44;30.07;101558.91;4940806;29;20043;-84
2023/06/12 11:25:03;;;;;;;5.43;3.55;;;;;;;27.44;30.56;101558.91;4935657;28;19926;-85
2023/06/12 11:27:32;;;;;;;3.92;3.53;;;;;;;27.47;29.31;101552.38;4959419;28;20031;-85
2023/06/12 11:30:14;;;;;;;3.95;3.35;;;;;;;27.49;27.68;101550.41;4946407;28;20290;-84
2023/06/12 11:46:38;;;;;;;5.40;3.50;;;;;;;27.67;26.89;101547.63;4959515;29;20058;-84
2023/06/12 11:54:16;;;;;;;7.53;3.58;;;;;;;27.70;27.85;101545.47;4959413;29;20334;-84
2023/06/12 11:56:44;;;;;;;4.00;3.70;;;;;;;27.69;27.27;101535.75;4960503;29;20081;-84
2023/06/12 11:59:10;;;;;;;7.78;3.50;;;;;;;27.71;28.22;101524.81;4958891;29;20027;-85
2023/06/12 12:01:40;;;;;;;7.40;3.70;;;;;;;27.70;27.58;101531.19;4960007;29;20030;-84
2023/06/12 12:04:06;;;;;;;3.83;3.10;;;;;;;27.72;27.78;101539.94;4958702;28;20070;-85
2023/06/12 12:06:46;;;;;;;3.97;3.40;;;;;;;27.73;27.34;101538.97;4958693;29;20023;-85
2023/06/12 12:09:13;;;;;;;7.90;3.90;;;;;;;27.70;27.52;101531.19;4961200;29;20082;-80
2023/06/12 12:11:38;;;;;;;3.53;3.22;;;;;;;27.69;26.55;101532.22;4943067;29;20035;-80
2023/06/12 12:14:04;;;;;;;4.03;3.45;;;;;;;27.70;26.82;101523.13;4961428;29;20073;-80
2023/06/12 12:16:37;;;;;;;3.72;3.42;;;;;;;27.71;27.84;101517.59;4970720;28;20058;-80
2023/06/12 12:19:26;;;;;;;4.00;3.67;;;;;;;27.76;27.53;101525.16;4980264;28;20069;-80
2023/06/12 12:21:52;;;;;;;4.25;3.85;;;;;;;27.77;28.53;101522.31;4980752;28;20150;-80
2023/06/12 12:24:17;;;;;;;4.03;3.63;;;;;;;27.78;27.86;101523.19;4980490;28;20097;-80
2023/06/12 12:26:51;;;;;;;4.22;3.72;;;;;;;27.73;28.38;101509.34;4980888;28;20034;-80
2023/06/12 12:29:25;;;;;;;5.60;3.80;;;;;;;27.74;27.53;101519.09;4962822;28;20034;-80
2023/06/12 12:31:51;;;;;;;10.82;3.92;;;;;;;27.72;27.85;101513.91;4980081;28;20038;-82
2023/06/12 12:34:16;;;;;;;5.07;3.65;;;;;;;27.75;28.92;101515.41;4980476;28;20031;-82
2023/06/12 12:36:42;;;;;;;4.28;3.55;;;;;;;27.77;28.38;101511.56;4980621;28;20348;-82
2023/06/12 12:39:07;;;;;;;9.93;4.07;;;;;;;27.81;29.08;101512.09;4962642;28;20039;-80
2023/06/12 12:41:35;;;;;;;5.95;4.03;;;;;;;27.87;28.13;101507.91;4979626;28;20127;-80
2023/06/12 12:44:00;;;;;;;5.50;3.92;;;;;;;27.90;28.99;101521.09;4977041;28;20607;-82
2023/06/12 12:46:26;;;;;;;5.13;3.97;;;;;;;27.89;29.13;101508.63;4980544;28;20035;-82
2023/06/12 12:48:51;;;;;;;5.43;3.72;;;;;;;27.87;29.35;101518.66;4979525;28;20049;-80
2023/06/12 12:51:17;;;;;;;4.15;3.75;;;;;;;27.95;27.41;101514.22;4980163;28;20034;-80
2023/06/12 12:53:43;;;;;;;4.40;3.63;;;;;;;27.98;28.22;101510.38;4979647;28;20031;-83
2023/06/12 12:56:09;;;;;;;11.32;3.95;;;;;;;28.01;29.10;101507.34;4979590;28;20030;-82
2023/06/12 12:58:35;;;;;;;4.35;3.33;;;;;;;28.06;27.07;101510.41;4979736;28;20337;-82
2023/06/12 13:01:01;;;;;;;6.40;3.50;;;;;;;28.09;28.12;101504.69;4979286;28;20413;-82
2023/06/12 13:03:34;;;;;;;3.92;3.60;;;;;;;28.07;28.80;101506.72;4978980;28;20034;-82
2023/06/12 13:06:01;;;;;;;5.13;4.00;;;;;;;28.06;27.68;101504.19;4974893;28;20046;-81
2023/06/12 13:08:27;;;;;;;8.13;4.03;;;;;;;27.96;26.52;101493.53;4980154;28;20109;-81
2023/06/12 13:10:52;;;;;;;9.35;3.92;;;;;;;27.98;27.86;101496.91;4979389;28;20045;-81
2023/06/12 13:13:18;;;;;;;4.88;3.78;;;;;;;27.93;26.81;101494.69;4979942;28;20031;-81
2023/06/12 13:15:45;;;;;;;10.80;3.72;;;;;;;27.87;27.12;101494.44;4961412;28;20046;-81
2023/06/12 13:18:10;;;;;;;5.07;4.15;;;;;;;27.86;28.07;101490.91;4979476;28;20098;-82
2023/06/12 13:20:36;;;;;;;4.35;3.90;;;;;;;27.89;28.03;101479.84;4979854;28;20602;-81
2023/06/12 13:23:01;;;;;;;7.05;4.15;;;;;;;27.97;28.80;101489.00;4961402;28;20341;-81
2023/06/12 13:25:27;;;;;;;4.95;4.60;;;;;;;28.01;27.87;101480.41;4962190;28;20039;-81
2023/06/12 13:27:52;;;;;;;5.43;4.25;;;;;;;28.02;29.57;101482.13;4978577;28;20034;-81
2023/06/12 13:30:17;;;;;;;4.57;4.05;;;;;;;28.07;28.99;101489.69;4979296;28;20249;-82
2023/06/12 13:32:43;;;;;;;4.97;4.05;;;;;;;28.06;28.67;101490.72;4979010;28;20081;-81
2023/06/12 13:35:09;;;;;;;11.20;4.20;;;;;;;28.08;28.09;101494.09;4961829;28;20210;-82
2023/06/12 13:37:34;;;;;;;4.72;4.35;;;;;;;28.05;28.59;101484.50;4979312;28;20050;-81
2023/06/12 13:40:00;;;;;;;5.88;4.05;;;;;;;28.00;28.70;101475.19;4978985;28;20030;-81
2023/06/12 13:42:26;;;;;;;8.00;4.32;;;;;;;27.97;28.91;101475.53;4977150;28;20337;-82
2023/06/12 13:44:52;;;;;;;5.82;4.22;;;;;;;27.95;29.21;101481.06;4979540;28;20405;-81
2023/06/12 13:47:18;;;;;;;6.05;3.83;;;;;;;27.97;28.92;101486.31;4980899;28;20356;-82
2023/06/12 13:49:43;;;;;;;6.53;4.03;;;;;;;27.97;28.62;101476.38;4973442;28;20168;-82
2023/06/12 13:52:09;;;;;;;6.00;4.45;;;;;;;27.95;30.06;101473.84;4963124;28;20311;-82
2023/06/12 13:54:35;;;;;;;8.70;3.97;;;;;;;28.01;27.60;101471.50;4968730;28;20026;-82
2023/06/12 13:57:01;;;;;;;4.63;4.22;;;;;;;28.01;28.57;101476.91;4965321;28;20070;-82
2023/06/12 13:59:26;;;;;;;7.35;4.38;;;;;;;28.02;29.12;101475.91;4979036;28;20034;-82
2023/06/12 14:01:52;;;;;;;9.75;4.07;;;;;;;27.98;29.43;101477.22;4968720;28;20110;-82
2023/06/12 14:04:17;;;;;;;4.47;4.10;;;;;;;27.92;29.36;101470.63;4978174;28;20042;-82
2023/06/12 14:06:43;;;;;;;7.75;4.20;;;;;;;27.97;29.19;101467.47;4978405;28;20031;-82
2023/06/12 14:09:09;;;;;;;4.50;4.20;;;;;;;27.91;28.75;101469.78;4976617;28;20416;-82
2023/06/12 14:11:35;;;;;;;10.13;4.47;;;;;;;27.91;29.78;101472.47;4975678;28;20038;-82
2023/06/12 14:14:01;;;;;;;4.80;4.38;;;;;;;27.88;29.81;101464.69;4977475;28;20065;-82
2023/06/12 14:16:26;;;;;;;5.68;4.45;;;;;;;27.87;29.95;101471.09;4980809;28;20074;-82
2023/06/12 14:18:53;;;;;;;6.25;4.45;;;;;;;27.89;29.24;101457.47;4985667;28;20054;-82
2023/06/12 14:21:20;;;;;;;6.10;4.18;;;;;;;27.89;29.42;101460.16;4961541;28;20061;-82
2023/06/12 14:23:46;;;;;;;5.85;4.25;;;;;;;27.90;29.92;101454.63;4960736;28;20027;-82
2023/06/12 14:26:12;;;;;;;4.95;4.30;;;;;;;28.01;29.80;101461.56;4978624;28;20340;-82
2023/06/12 14:28:38;;;;;;;5.45;4.60;;;;;;;28.02;29.14;101457.91;4978810;28;20043;-82
2023/06/12 14:31:04;;;;;;;9.20;3.97;;;;;;;28.07;29.04;101460.09;4979978;28;20033;-82
2023/06/12 14:33:29;;;;;;;5.93;4.18;;;;;;;28.06;27.90;101464.63;4983722;28;20038;-82
2023/06/12 14:35:54;;;;;;;10.35;4.32;;;;;;;28.04;28.10;101457.75;4980959;28;20070;-82
2023/06/12 14:38:20;;;;;;;4.57;4.18;;;;;;;27.98;28.50;101455.69;4962238;28;20050;-81
2023/06/12 14:40:45;;;;;;;5.65;4.35;;;;;;;27.99;29.02;101452.00;4963105;28;20043;-81
2023/06/12 14:43:11;;;;;;;7.15;4.43;;;;;;;27.94;29.10;101450.63;4964724;28;20387;-82
2023/06/12 14:45:36;;;;;;;4.70;4.30;;;;;;;27.98;29.56;101458.38;4979243;28;20049;-82
2023/06/12 14:48:02;;;;;;;4.88;4.47;;;;;;;27.93;29.20;101457.00;4960144;28;20046;-81
2023/06/12 14:50:27;;;;;;;6.88;4.00;;;;;;;27.92;28.48;101444.56;4983871;28;20052;-82
2023/06/12 14:52:53;;;;;;;4.40;4.07;;;;;;;27.91;28.51;101450.13;4986637;28;20375;-82
2023/06/12 14:55:18;;;;;;;4.15;3.95;;;;;;;27.91;27.59;101444.72;4981454;28;20102;-82
2023/06/12 14:57:44;;;;;;;5.03;4.53;;;;;;;27.97;28.35;101444.06;4983346;28;20030;-82
2023/06/12 15:00:10;;;;;;;4.82;4.20;;;;;;;27.96;27.59;101450.47;4985678;28;20391;-82
2023/06/12 15:02:36;;;;;;;4.88;4.20;;;;;;;27.93;28.18;101440.84;4987698;28;20035;-82
2023/06/12 15:05:01;;;;;;;5.20;4.30;;;;;;;27.94;27.89;101441.69;4989576;28;20031;-81
2023/06/12 15:07:45;;;;;;;4.80;4.40;;;;;;;27.95;28.36;101438.84;4982198;28;20038;-82
2023/06/12 15:10:10;;;;;;;4.93;4.15;;;;;;;27.94;27.93;101430.94;4982071;28;20224;-81
2023/06/12 15:12:35;;;;;;;6.97;4.20;;;;;;;27.92;28.24;101439.19;4964858;28;20031;-82
2023/06/12 15:15:01;;;;;;;4.80;4.35;;;;;;;27.92;28.39;101444.56;4982585;28;20062;-82
2023/06/12 15:17:26;;;;;;;4.45;4.15;;;;;;;27.94;27.87;101439.00;4981725;28;20039;-82
2023/06/12 15:19:52;;;;;;;6.05;4.18;;;;;;;27.90;28.24;101438.47;4964783;28;20039;-82
2023/06/12 15:22:18;;;;;;;5.25;4.13;;;;;;;27.92;28.31;101431.13;4985014;28;20372;-82
2023/06/12 15:24:44;;;;;;;5.07;4.10;;;;;;;27.94;28.13;101431.78;4981007;28;20058;-82
2023/06/12 15:27:10;;;;;;;7.22;4.10;;;;;;;27.90;28.32;101440.34;4980598;28;20261;-82
2023/06/12 15:29:35;;;;;;;4.63;3.90;;;;;;;27.90;27.29;101430.41;4979997;28;20203;-82
2023/06/12 15:32:04;;;;;;;7.38;4.13;;;;;;;27.89;28.00;101428.72;4977103;28;20034;-82
2023/06/12 15:34:30;;;;;;;4.95;4.05;;;;;;;27.85;28.41;101427.34;4980365;28;20271;-82
2023/06/12 15:36:55;;;;;;;17.00;4.80;;;;;;;27.79;30.18;101425.28;4962834;28;20037;-83
2023/06/12 15:39:21;;;;;;;12.52;4.57;;;;;;;27.64;32.53;101421.53;4980229;28;20075;-82
2023/06/12 15:41:46;;;;;;;5.18;4.63;;;;;;;27.65;30.80;101429.44;4980022;28;20090;-83
2023/06/12 15:44:12;;;;;;;9.45;4.93;;;;;;;27.63;30.80;101427.91;4966222;28;20031;-82
2023/06/12 15:46:37;;;;;;;6.05;4.15;;;;;;;27.57;30.91;101432.06;4966496;28;20035;-81
2023/06/12 15:49:02;;;;;;;4.47;4.13;;;;;;;27.53;30.81;101419.97;4979730;28;20058;-81
2023/06/12 15:51:28;;;;;;;6.90;4.32;;;;;;;27.51;29.90;101422.81;4968874;28;20106;-81
2023/06/12 15:53:54;;;;;;;5.80;4.40;;;;;;;27.45;30.96;101423.44;4979160;28;20037;-82
2023/06/12 15:56:20;;;;;;;7.57;4.70;;;;;;;27.50;29.68;101420.25;4979369;28;20405;-80
2023/06/12 15:58:50;;;;;;;10.77;4.70;;;;;;;27.44;31.70;101419.06;4975906;28;20062;-81
2023/06/12 16:01:16;;;;;;;8.23;4.82;;;;;;;27.41;31.30;101415.84;4961480;28;20340;-82
2023/06/12 16:03:41;;;;;;;11.07;4.85;;;;;;;27.32;32.36;101409.56;4977859;28;20098;-82
2023/06/12 16:06:07;;;;;;;11.85;5.10;;;;;;;27.30;32.27;101406.19;4979102;28;20309;-81
2023/06/12 16:08:32;;;;;;;5.72;4.18;;;;;;;27.24;32.03;101409.50;4979332;28;20035;-82
2023/06/12 16:10:58;;;;;;;7.03;4.75;;;;;;;27.23;31.49;101405.09;4976999;28;20590;-80
2023/06/12 16:13:24;;;;;;;10.85;4.53;;;;;;;27.12;33.36;101404.38;4976859;28;20090;-82
2023/06/12 16:15:49;;;;;;;9.82;4.07;;;;;;;27.12;31.04;101400.84;4979388;28;20031;-82
2023/06/12 16:18:16;;;;;;;10.05;4.60;;;;;;;27.12;32.28;101398.16;4963405;28;20103;-81
2023/06/12 16:20:42;;;;;;;9.02;4.78;;;;;;;27.04;31.10;101400.78;4967215;28;20114;-81
2023/06/12 16:23:25;;;;;;;7.78;4.95;;;;;;;27.09;30.62;101390.41;4966314;28;20245;-82
2023/06/12 16:25:51;;;;;;;9.10;4.75;;;;;;;27.04;32.23;101393.56;4979260;28;20054;-81
2023/06/12 16:28:16;;;;;;;6.18;4.35;;;;;;;27.09;29.82;101395.78;4979542;28;20058;-81
2023/06/12 16:30:42;;;;;;;5.63;4.60;;;;;;;27.16;30.36;101386.06;4962867;28;20372;-81
2023/06/12 16:33:07;;;;;;;17.65;6.03;;;;;;;27.13;32.77;101383.72;4978226;28;20066;-81
2023/06/12 16:35:32;;;;;;;11.85;5.05;;;;;;;27.06;32.40;101388.88;4980159;28;20038;-81
2023/06/12 16:37:58;;;;;;;8.13;4.38;;;;;;;27.10;31.68;101379.47;4981823;28;20300;-81
2023/06/12 16:40:25;;;;;;;5.80;4.57;;;;;;;27.07;32.35;101381.63;4965407;28;20400;-81
2023/06/12 16:42:50;;;;;;;10.02;4.45;;;;;;;27.05;31.29;101378.28;4977675;28;20359;-81
2023/06/12 16:45:16;;;;;;;8.07;4.47;;;;;;;27.05;33.30;101383.66;4965439;28;20069;-81
2023/06/12 16:47:41;;;;;;;14.50;5.40;;;;;;;26.97;34.61;101373.69;4979886;28;20092;-81
2023/06/12 16:50:07;;;;;;;5.05;4.65;;;;;;;26.97;33.10;101369.16;4979427;28;20038;-81
2023/06/12 16:52:32;;;;;;;6.72;4.60;;;;;;;27.05;31.16;101373.75;4975007;28;20325;-81
2023/06/12 16:54:58;;;;;;;9.98;4.70;;;;;;;27.04;32.97;101363.16;4977756;28;20066;-82
2023/06/12 16:57:24;;;;;;;6.55;4.63;;;;;;;27.00;32.74;101365.31;4976814;28;20038;-81
2023/06/12 16:59:49;;;;;;;10.05;4.63;;;;;;;26.98;33.24;101367.31;4962320;28;20035;-82
2023/06/12 17:02:17;;;;;;;7.45;4.38;;;;;;;27.00;31.88;101363.47;4977828;28;20236;-82
2023/06/12 17:04:43;;;;;;;5.00;4.60;;;;;;;26.93;31.97;101362.41;4977862;28;20045;-82
2023/06/12 17:07:08;;;;;;;5.43;4.32;;;;;;;26.92;31.57;101366.09;4959435;28;20304;-82
2023/06/12 17:09:33;;;;;;;6.35;4.35;;;;;;;26.89;33.66;101362.91;4974076;28;20053;-82
2023/06/12 17:11:59;;;;;;;8.18;4.43;;;;;;;26.93;33.43;101361.56;4976398;28;20038;-82
2023/06/12 17:14:25;;;;;;;12.18;4.88;;;;;;;26.82;35.25;101365.34;4959442;28;20031;-81
2023/06/12 17:16:50;;;;;;;6.28;4.25;;;;;;;26.81;32.75;101353.78;4962520;28;20057;-81
2023/06/12 17:19:17;;;;;;;4.80;4.30;;;;;;;26.83;32.51;101364.34;4959559;28;20042;-82
2023/06/12 17:21:44;;;;;;;10.48;4.25;;;;;;;26.81;32.81;101353.78;4974413;28;20038;-82
2023/06/12 17:24:10;;;;;;;6.05;4.40;;;;;;;26.78;33.43;101355.94;4973402;28;20046;-81
2023/06/12 17:26:35;;;;;;;5.47;4.30;;;;;;;26.81;32.96;101359.16;4972345;28;20281;-82
2023/06/12 17:29:01;;;;;;;4.55;4.03;;;;;;;26.79;34.05;101360.28;4975140;28;20042;-82
2023/06/12 17:31:28;;;;;;;4.30;3.97;;;;;;;26.78;33.96;101354.06;4977321;28;20031;-81
2023/06/12 17:33:53;;;;;;;5.60;4.22;;;;;;;26.82;34.42;101349.22;4973476;28;20042;-81
2023/06/12 17:36:19;;;;;;;6.72;4.47;;;;;;;26.82;34.97;101359.97;4975774;28;20357;-81
2023/06/12 17:38:47;;;;;;;4.95;4.07;;;;;;;26.84;34.75;101357.16;4974007;28;20041;-82
2023/06/12 17:41:13;;;;;;;7.22;4.40;;;;;;;26.83;34.29;101355.44;4976951;28;20034;-82
2023/06/12 17:43:39;;;;;;;5.03;4.30;;;;;;;26.80;34.37;101351.25;4976582;28;20049;-81
2023/06/12 17:46:04;;;;;;;6.68;4.43;;;;;;;26.83;34.10;101350.06;4974302;28;20062;-81
2023/06/12 17:48:29;;;;;;;9.68;4.55;;;;;;;26.83;34.46;101344.69;4976580;28;20034;-81
2023/06/12 17:50:55;;;;;;;4.85;4.47;;;;;;;26.80;34.24;101348.56;4975417;28;20046;-81
2023/06/12 17:53:20;;;;;;;4.78;4.40;;;;;;;26.80;34.85;101348.56;4976535;28;20368;-81
2023/06/12 17:55:46;;;;;;;6.20;4.40;;;;;;;26.75;34.96;101351.69;4975928;28;20253;-81
2023/06/12 17:58:11;;;;;;;11.73;4.20;;;;;;;26.70;35.34;101350.47;4975235;28;20122;-82
2023/06/12 18:00:37;;;;;;;5.75;4.68;;;;;;;26.67;35.85;101348.97;4976561;28;20030;-81
2023/06/12 18:03:03;;;;;;;7.93;4.35;;;;;;;26.66;35.38;101351.78;4976102;28;20038;-81
2023/06/12 18:05:28;;;;;;;4.32;4.00;;;;;;;26.64;35.66;101343.88;4976024;28;20277;-81
2023/06/12 18:07:54;;;;;;;6.43;4.38;;;;;;;26.61;35.74;101346.88;4976088;28;20038;-81
2023/06/12 18:10:19;;;;;;;7.78;4.40;;;;;;;26.56;35.33;101347.31;4975569;28;20038;-81
2023/06/12 18:12:45;;;;;;;4.28;3.88;;;;;;;26.51;36.47;101344.25;4976085;28;20207;-81
2023/06/12 18:15:10;;;;;;;4.65;4.18;;;;;;;26.48;37.24;101352.59;4957869;28;20023;-81
2023/06/12 18:17:36;;;;;;;5.47;4.55;;;;;;;26.43;36.81;101344.16;4975529;28;20066;-81
2023/06/12 18:20:02;;;;;;;5.10;3.85;;;;;;;26.37;37.53;101342.94;4975580;28;20039;-81
2023/06/12 18:22:27;;;;;;;10.02;4.13;;;;;;;26.31;38.15;101343.56;4958548;28;20245;-81
2023/06/12 18:24:57;;;;;;;5.13;3.90;;;;;;;26.32;38.47;101355.13;4974901;28;20069;-81
2023/06/12 18:27:23;;;;;;;6.18;4.00;;;;;;;26.26;38.91;101353.09;4976072;28;20357;-81
2023/06/12 18:29:48;;;;;;;6.65;4.03;;;;;;;26.21;38.95;101340.09;4974828;28;20046;-81
2023/06/12 18:32:14;;;;;;;4.32;4.00;;;;;;;26.18;38.70;101343.94;4976501;28;20135;-81
2023/06/12 18:34:41;;;;;;;4.50;4.10;;;;;;;26.10;38.99;101348.38;4953876;28;20136;-81
2023/06/12 18:37:06;;;;;;;6.03;4.20;;;;;;;26.06;39.40;101355.88;4977067;28;20049;-81
2023/06/12 18:39:32;;;;;;;5.97;4.15;;;;;;;26.02;40.05;101346.47;4976035;28;20038;-81
2023/06/12 18:41:57;;;;;;;4.60;3.72;;;;;;;26.00;40.05;101360.03;4960843;28;20023;-81
2023/06/12 18:44:23;;;;;;;10.50;4.40;;;;;;;25.93;40.17;101360.78;4978701;28;20234;-81
2023/06/12 18:46:48;;;;;;;10.52;3.53;;;;;;;25.93;40.20;101358.94;4960099;28;20027;-82
2023/06/12 18:49:13;;;;;;;4.75;4.25;;;;;;;25.88;40.70;101366.56;4976207;28;20388;-81
2023/06/12 18:51:39;;;;;;;6.38;3.88;;;;;;;25.85;40.64;101362.34;4977940;28;20034;-81
2023/06/12 18:54:04;;;;;;;8.27;3.85;;;;;;;25.78;40.39;101360.41;4975468;28;20031;-81
2023/06/12 18:56:33;;;;;;;6.18;3.50;;;;;;;25.77;40.98;101358.72;4959510;28;20049;-81
2023/06/12 18:58:58;;;;;;;4.75;3.70;;;;;;;25.75;41.55;101358.03;4976162;28;20038;-81
2023/06/12 19:01:24;;;;;;;4.20;3.78;;;;;;;25.70;41.83;101366.50;4978890;28;20237;-81
2023/06/12 19:03:49;;;;;;;4.28;3.33;;;;;;;25.66;41.81;101365.13;4977694;28;20078;-81
2023/06/12 19:06:15;;;;;;;12.88;4.07;;;;;;;25.61;42.22;101372.75;4977131;28;20377;-81
2023/06/12 19:08:52;;;;;;;5.88;3.47;;;;;;;25.57;42.73;101369.53;4961574;28;20237;-81
2023/06/12 19:11:17;;;;;;;10.07;4.25;;;;;;;25.53;43.14;101375.34;4978785;28;20223;-81
2023/06/12 19:13:43;;;;;;;7.68;4.10;;;;;;;25.50;43.27;101378.31;4958717;28;20038;-81
2023/06/12 19:16:09;;;;;;;7.30;3.95;;;;;;;25.46;44.00;101380.44;4960857;28;20057;-81
2023/06/12 19:18:34;;;;;;;7.22;3.90;;;;;;;25.43;44.14;101381.59;4958078;28;20051;-81
2023/06/12 19:21:00;;;;;;;5.63;3.63;;;;;;;25.38;44.26;101383.88;4976892;28;20333;-81
2023/06/12 19:23:25;;;;;;;4.30;3.58;;;;;;;25.39;44.50;101385.53;4978263;28;20166;-81
2023/06/12 19:25:51;;;;;;;5.03;4.05;;;;;;;25.36;44.88;101390.34;4977649;28;20073;-81
2023/06/12 19:28:16;;;;;;;6.88;3.70;;;;;;;25.32;45.19;101387.13;4978058;28;20037;-81
2023/06/12 19:30:42;;;;;;;7.50;3.70;;;;;;;25.24;44.80;101390.53;4960062;28;20113;-81
2023/06/12 19:33:10;;;;;;;5.35;4.03;;;;;;;25.19;45.66;101391.91;4959204;28;20037;-81
2023/06/12 19:35:35;;;;;;;5.22;4.03;;;;;;;25.15;45.82;101391.38;4977525;28;20041;-81
2023/06/12 19:38:01;;;;;;;8.68;3.50;;;;;;;25.09;46.06;101390.13;4976134;28;20097;-81
2023/06/12 19:40:26;;;;;;;5.10;3.53;;;;;;;25.07;46.17;101388.56;4974154;28;20054;-81
2023/06/12 19:42:52;;;;;;;10.05;3.88;;;;;;;25.05;46.60;101388.72;4959158;28;20301;-81
2023/06/12 19:45:20;;;;;;;9.23;4.10;;;;;;;24.99;46.97;101402.66;4976747;28;20366;-81
2023/06/12 19:47:48;;;;;;;5.40;3.67;;;;;;;24.99;47.00;101401.84;4975020;28;20218;-81
2023/06/12 19:50:14;;;;;;;5.07;3.80;;;;;;;24.94;46.84;101399.59;4976052;28;20042;-81
2023/06/12 19:52:39;;;;;;;6.30;3.80;;;;;;;24.88;47.38;101406.34;4976040;28;20050;-82
2023/06/12 19:55:05;;;;;;;4.70;3.92;;;;;;;24.81;47.85;101407.06;4975910;28;20035;-81
2023/06/12 19:57:30;;;;;;;4.03;3.53;;;;;;;24.86;47.36;101397.59;4976470;28;20240;-82
2023/06/12 19:59:56;;;;;;;6.68;4.20;;;;;;;24.78;48.15;101400.16;4976122;28;20034;-81
2023/06/12 20:02:21;;;;;;;4.53;4.00;;;;;;;24.77;48.28;101403.81;4959960;28;20034;-81
2023/06/12 20:04:47;;;;;;;7.85;4.53;;;;;;;24.73;48.37;101396.22;4958943;28;20035;-81
2023/06/12 20:07:12;;;;;;;8.50;4.00;;;;;;;24.63;48.38;101397.06;4977807;28;20041;-81
2023/06/12 20:09:38;;;;;;;9.35;4.22;;;;;;;24.58;48.42;101414.56;4957260;28;20231;-81
2023/06/12 20:12:05;;;;;;;4.50;3.97;;;;;;;24.52;48.79;101415.91;4960019;28;20281;-81
2023/06/12 20:14:30;;;;;;;4.95;4.35;;;;;;;24.45;48.73;101412.06;4960125;28;20035;-81
2023/06/12 20:16:55;;;;;;;6.57;4.15;;;;;;;24.45;49.14;101414.75;4976585;28;20391;-81
2023/06/12 20:19:21;;;;;;;6.18;4.28;;;;;;;24.39;49.04;101407.28;4977716;28;20038;-81
2023/06/12 20:21:49;;;;;;;7.78;4.35;;;;;;;24.28;49.41;101413.63;4977159;28;20135;-81
2023/06/12 20:24:14;;;;;;;6.05;4.22;;;;;;;24.23;49.90;101414.03;4974559;28;20038;-81
2023/06/12 20:26:40;;;;;;;6.63;4.57;;;;;;;24.23;49.78;101414.03;4977481;28;20106;-81
2023/06/12 20:29:05;;;;;;;4.55;4.25;;;;;;;24.16;51.01;101420.94;4977103;28;20482;-81
2023/06/12 20:31:31;;;;;;;4.80;4.32;;;;;;;24.04;51.44;101420.19;4977357;28;20045;-81
2023/06/12 20:33:56;;;;;;;7.20;5.05;;;;;;;24.07;51.42;101424.44;4972439;28;20027;-81
2023/06/12 20:36:22;;;;;;;5.03;4.47;;;;;;;24.01;52.31;101417.75;4976229;28;20281;-81
2023/06/12 20:38:49;;;;;;;5.00;4.53;;;;;;;24.00;52.25;101416.09;4976965;28;20051;-81
2023/06/12 20:41:14;;;;;;;5.15;4.65;;;;;;;23.98;52.27;101419.88;4973534;28;20034;-81
2023/06/12 20:43:40;;;;;;;9.68;5.07;;;;;;;23.94;52.99;101414.81;4972077;28;20073;-81
2023/06/12 20:46:05;;;;;;;13.95;5.22;;;;;;;23.90;53.28;101417.88;4974015;28;20057;-81
2023/06/12 20:48:32;;;;;;;9.73;4.97;;;;;;;23.89;53.25;101421.53;4955572;28;20034;-81
2023/06/12 20:50:58;;;;;;;6.53;4.93;;;;;;;23.77;54.34;101426.94;4957417;28;20034;-81
2023/06/12 20:53:24;;;;;;;8.32;5.15;;;;;;;23.77;54.55;101426.09;4975813;28;20082;-81
2023/06/12 20:55:49;;;;;;;5.60;5.10;;;;;;;23.73;54.81;101433.53;4976635;28;20389;-81
2023/06/12 20:58:15;;;;;;;4.85;4.43;;;;;;;23.75;54.26;101431.56;4977260;28;20329;-81
2023/06/12 21:00:40;;;;;;;6.28;5.13;;;;;;;23.67;55.37;101425.22;4976579;28;20221;-81
2023/06/12 21:03:09;;;;;;;5.47;4.97;;;;;;;23.65;55.32;101429.84;4976791;28;20144;-81
2023/06/12 21:05:34;;;;;;;;;;;;;;;23.55;56.42;101430.63;4976831;28;20039;-81
2023/06/12 21:08:00;;;;;;;8.05;5.18;;;;;;;23.50;57.05;101424.88;4975644;28;19976;-81
2023/06/12 21:10:25;;;;;;;7.85;5.82;;;;;;;23.49;56.90;101427.66;4976417;28;20439;-81
2023/06/12 21:12:51;;;;;;;8.57;5.40;;;;;;;23.42;57.80;101427.34;4976098;28;20240;-81
2023/06/12 21:15:17;;;;;;;7.28;5.13;;;;;;;23.38;58.03;101425.91;4975844;28;20307;-81
2023/06/12 21:17:42;;;;;;;10.68;5.53;;;;;;;23.37;58.08;101425.03;4971824;28;20393;-81
2023/06/12 21:20:09;;;;;;;9.07;5.50;;;;;;;23.36;57.96;101430.53;4971222;28;20042;-81
2023/06/12 21:22:39;;;;;;;5.47;4.97;;;;;;;23.37;57.96;101426.88;4975565;28;20046;-81
2023/06/12 21:25:05;;;;;;;7.15;5.35;;;;;;;23.39;57.83;101427.59;4974706;28;20109;-81
2023/06/12 21:27:31;;;;;;;8.48;5.65;;;;;;;23.37;58.50;101430.38;4971846;28;20042;-81
2023/06/12 21:29:56;;;;;;;6.32;4.93;;;;;;;23.35;58.38;101429.69;4975658;28;20029;-81
2023/06/12 21:32:21;;;;;;;12.55;5.82;;;;;;;23.33;58.75;101426.28;4975732;28;20043;-81
2023/06/12 21:34:47;;;;;;;10.25;5.40;;;;;;;23.30;59.03;101433.72;4957873;28;20030;-81
2023/06/12 21:37:12;;;;;;;9.43;5.90;;;;;;;23.29;59.48;101426.72;4976902;28;20034;-81
2023/06/12 21:39:38;;;;;;;6.90;5.53;;;;;;;23.25;59.71;101425.25;4975843;28;20073;-81
2023/06/12 21:42:03;;;;;;;10.35;5.82;;;;;;;23.23;60.11;101428.09;4974663;28;20109;-81
2023/06/12 21:44:29;;;;;;;9.95;5.50;;;;;;;23.20;59.57;101431.00;4976425;28;20154;-81
2023/06/12 21:46:54;;;;;;;5.65;5.25;;;;;;;23.15;60.20;101425.19;4959975;28;20065;-81
2023/06/12 21:49:19;;;;;;;18.88;6.00;;;;;;;23.11;60.88;101427.28;4958814;28;20074;-81
2023/06/12 21:51:45;;;;;;;6.90;5.55;;;;;;;23.08;60.26;101427.53;4975392;28;20082;-81
2023/06/12 21:54:10;;;;;;;7.43;6.25;;;;;;;23.04;60.76;101423.44;4975446;28;20102;-81
2023/06/12 21:56:39;;;;;;;6.80;5.75;;;;;;;23.01;60.07;101431.66;4975831;28;20027;-81
2023/06/12 21:59:04;;;;;;;8.23;5.93;;;;;;;22.94;59.71;101434.03;4975807;28;20078;-81
2023/06/12 22:01:30;;;;;;;7.35;5.53;;;;;;;22.95;59.33;101435.69;4958056;28;20043;-81
2023/06/12 22:03:55;;;;;;;6.93;5.88;;;;;;;22.91;59.37;101430.75;4975530;28;20041;-81
2023/06/12 22:06:21;;;;;;;8.52;6.75;;;;;;;22.76;59.11;101436.41;4975485;28;20167;-81
2023/06/12 22:08:46;;;;;;;7.25;6.38;;;;;;;22.72;57.62;101434.97;4957243;28;20046;-81
2023/06/12 22:11:12;;;;;;;9.27;6.10;;;;;;;22.63;56.38;101435.72;4960017;28;20436;-81
2023/06/12 22:13:38;;;;;;;6.65;5.82;;;;;;;22.61;55.57;101435.84;4978432;28;20210;-81
2023/06/12 22:16:03;;;;;;;6.55;5.88;;;;;;;22.62;53.48;101431.34;4979046;28;20307;-81
2023/06/12 22:18:29;;;;;;;10.02;5.70;;;;;;;22.54;52.48;101429.31;4980599;28;20059;-81
2023/06/12 22:20:54;;;;;;;6.70;5.57;;;;;;;22.59;51.88;101436.94;4963298;28;20077;-81
2023/06/12 22:23:20;;;;;;;6.05;5.55;;;;;;;22.51;51.64;101428.72;4982183;28;20038;-81
2023/06/12 22:25:45;;;;;;;6.22;5.63;;;;;;;22.48;51.42;101426.28;4981670;28;20047;-81
2023/06/12 22:28:13;;;;;;;8.40;5.20;;;;;;;22.48;50.23;101434.31;4981868;28;20054;-81
2023/06/12 22:30:39;;;;;;;6.15;5.65;;;;;;;22.42;49.88;101433.00;4981906;28;20049;-81
2023/06/12 22:33:05;;;;;;;7.10;5.90;;;;;;;22.48;48.56;101428.97;4982073;28;20110;-81
2023/06/12 22:35:31;;;;;;;5.60;5.10;;;;;;;22.46;47.49;101430.91;4981973;28;20050;-81
2023/06/12 22:37:56;;;;;;;7.22;5.68;;;;;;;22.40;47.38;101433.09;4981376;28;20337;-81
2023/06/12 22:40:22;;;;;;;6.13;5.63;;;;;;;22.35;47.56;101440.63;4963221;28;20039;-81
2023/06/12 22:42:48;;;;;;;7.30;5.40;;;;;;;22.24;46.95;101441.47;4963254;28;20027;-81
2023/06/12 22:45:15;;;;;;;6.20;5.38;;;;;;;22.19;47.44;101438.34;4980693;28;20097;-81
2023/06/12 22:47:41;;;;;;;6.22;5.72;;;;;;;22.27;47.09;101442.25;4978923;28;20038;-81
2023/06/12 22:50:07;;;;;;;6.60;5.38;;;;;;;22.18;46.39;101436.63;4980935;28;20036;-81
2023/06/12 22:52:33;;;;;;;12.27;5.47;;;;;;;22.15;47.09;101439.53;4963635;28;20030;-81